sensor_id;sensor_type;location;lat;lon;timestamp;pressure;altitude;pressure_sealevel;temperature;humidity
77452;BME280;66537;52.370;4.832;2023-08-06T00:01:46;100573.03;;;15.03;100.00
77452;BME280;66537;52.370;4.832;2023-08-06T00:04:11;100566.91;;;15.04;100.00
77452;BME280;66537;52.370;4.832;2023-08-06T00:06:37;100575.03;;;14.98;100.00
77452;BME280;66537;52.370;4.832;2023-08-06T00:09:02;100568.81;;;15.01;100.00
77452;BME280;66537;52.370;4.832;2023-08-06T00:11:27;100574.50;;;15.09;100.00
77452;BME280;66537;52.370;4.832;2023-08-06T00:13:53;100564.97;;;15.08;100.00
77452;BME280;66537;52.370;4.832;2023-08-06T00:16:18;100565.59;;;15.13;100.00
77452;BME280;66537;52.370;4.832;2023-08-06T00:18:43;100560.06;;;15.19;100.00
77452;BME280;66537;52.370;4.832;2023-08-06T00:21:09;100562.75;;;15.17;100.00
77452;BME280;66537;52.370;4.832;2023-08-06T00:23:37;100560.06;;;15.19;100.00
77452;BME280;66537;52.370;4.832;2023-08-06T00:26:02;100557.22;;;15.23;100.00
77452;BME280;66537;52.370;4.832;2023-08-06T00:28:27;100558.16;;;15.22;100.00
77452;BME280;66537;52.370;4.832;2023-08-06T00:30:54;100559.06;;;15.21;100.00
77452;BME280;66537;52.370;4.832;2023-08-06T00:33:20;100559.63;;;15.11;100.00
77452;BME280;66537;52.370;4.832;2023-08-06T00:35:46;100565.75;;;15.10;100.00
77452;BME280;66537;52.370;4.832;2023-08-06T00:38:12;100557.88;;;15.11;100.00
77452;BME280;66537;52.370;4.832;2023-08-06T00:40:37;100564.97;;;15.25;100.00
77452;BME280;66537;52.370;4.832;2023-08-06T00:43:02;100559.22;;;15.18;100.00
77452;BME280;66537;52.370;4.832;2023-08-06T00:45:28;100562.50;;;15.22;100.00
77452;BME280;66537;52.370;4.832;2023-08-06T00:47:55;100557.03;;;15.11;100.00
77452;BME280;66537;52.370;4.832;2023-08-06T00:50:20;100558.47;;;15.16;100.00
77452;BME280;66537;52.370;4.832;2023-08-06T00:52:48;100553.16;;;15.18;100.00
77452;BME280;66537;52.370;4.832;2023-08-06T00:55:13;100556.53;;;15.20;100.00
77452;BME280;66537;52.370;4.832;2023-08-06T00:57:39;100563.44;;;15.21;100.00
77452;BME280;66537;52.370;4.832;2023-08-06T01:00:05;100561.06;;;15.16;100.00
77452;BME280;66537;52.370;4.832;2023-08-06T01:02:31;100561.84;;;15.18;100.00
77452;BME280;66537;52.370;4.832;2023-08-06T01:04:56;100564.22;;;15.23;100.00
77452;BME280;66537;52.370;4.832;2023-08-06T01:07:37;100551.56;;;15.15;100.00
77452;BME280;66537;52.370;4.832;2023-08-06T01:12:57;100564.34;;;15.20;100.00
77452;BME280;66537;52.370;4.832;2023-08-06T01:15:30;100558.06;;;15.24;100.00
77452;BME280;66537;52.370;4.832;2023-08-06T01:17:57;100558.22;;;15.21;100.00
77452;BME280;66537;52.370;4.832;2023-08-06T01:20:28;100564.03;;;15.26;100.00
77452;BME280;66537;52.370;4.832;2023-08-06T01:22:54;100565.72;;;15.27;100.00
77452;BME280;66537;52.370;4.832;2023-08-06T01:25:19;100564.41;;;15.35;100.00
77452;BME280;66537;52.370;4.832;2023-08-06T01:27:48;100569.88;;;15.31;100.00
77452;BME280;66537;52.370;4.832;2023-08-06T01:30:25;100560.94;;;15.35;100.00
77452;BME280;66537;52.370;4.832;2023-08-06T01:32:53;100560.88;;;15.36;100.00
77452;BME280;66537;52.370;4.832;2023-08-06T01:35:24;100572.38;;;15.32;100.00
77452;BME280;66537;52.370;4.832;2023-08-06T01:37:51;100565.66;;;15.28;100.00
77452;BME280;66537;52.370;4.832;2023-08-06T01:40:16;100563.44;;;15.21;100.00
77452;BME280;66537;52.370;4.832;2023-08-06T01:42:41;100565.69;;;15.11;100.00
77452;BME280;66537;52.370;4.832;2023-08-06T01:45:08;100566.19;;;15.18;100.00
77452;BME280;66537;52.370;4.832;2023-08-06T01:47:33;100559.22;;;15.18;100.00
77452;BME280;66537;52.370;4.832;2023-08-06T01:49:59;100566.88;;;15.21;100.00
77452;BME280;66537;52.370;4.832;2023-08-06T01:52:24;100565.34;;;15.34;100.00
77452;BME280;66537;52.370;4.832;2023-08-06T01:54:49;100570.28;;;15.39;100.00
77452;BME280;66537;52.370;4.832;2023-08-06T01:57:15;100568.25;;;15.28;100.00
77452;BME280;66537;52.370;4.832;2023-08-06T01:59:40;100568.09;;;15.31;100.00
77452;BME280;66537;52.370;4.832;2023-08-06T02:02:05;100569.34;;;15.24;100.00
77452;BME280;66537;52.370;4.832;2023-08-06T02:04:31;100569.91;;;15.29;100.00
77452;BME280;66537;52.370;4.832;2023-08-06T02:06:56;100570.88;;;15.28;100.00
77452;BME280;66537;52.370;4.832;2023-08-06T02:09:21;100574.25;;;15.13;100.00
77452;BME280;66537;52.370;4.832;2023-08-06T02:11:47;100571.41;;;15.18;100.00
77452;BME280;66537;52.370;4.832;2023-08-06T02:14:12;100575.94;;;15.14;100.00
77452;BME280;66537;52.370;4.832;2023-08-06T02:16:37;100577.94;;;15.09;100.00
77452;BME280;66537;52.370;4.832;2023-08-06T02:19:03;100583.97;;;15.10;100.00
77452;BME280;66537;52.370;4.832;2023-08-06T02:21:28;100574.25;;;15.13;100.00
77452;BME280;66537;52.370;4.832;2023-08-06T02:23:54;100569.09;;;15.12;100.00
77452;BME280;66537;52.370;4.832;2023-08-06T02:26:20;100578.00;;;15.08;100.00
77452;BME280;66537;52.370;4.832;2023-08-06T02:28:45;100570.53;;;15.02;100.00
77452;BME280;66537;52.370;4.832;2023-08-06T02:31:10;100573.91;;;15.04;100.00
77452;BME280;66537;52.370;4.832;2023-08-06T02:33:36;100569.69;;;15.01;100.00
77452;BME280;66537;52.370;4.832;2023-08-06T02:36:03;100580.47;;;14.94;100.00
77452;BME280;66537;52.370;4.832;2023-08-06T02:38:29;100577.78;;;14.95;100.00
77452;BME280;66537;52.370;4.832;2023-08-06T02:40:54;100571.81;;;14.93;100.00
77452;BME280;66537;52.370;4.832;2023-08-06T02:43:20;100577.72;;;14.97;100.00
77452;BME280;66537;52.370;4.832;2023-08-06T02:45:45;100574.50;;;14.92;100.00
77452;BME280;66537;52.370;4.832;2023-08-06T02:48:11;100572.81;;;14.91;100.00
77452;BME280;66537;52.370;4.832;2023-08-06T02:50:40;100569.38;;;14.90;100.00
77452;BME280;66537;52.370;4.832;2023-08-06T02:53:06;100573.81;;;14.88;100.00
77452;BME280;66537;52.370;4.832;2023-08-06T02:55:32;100575.13;;;14.80;100.00
77452;BME280;66537;52.370;4.832;2023-08-06T02:57:59;100574.59;;;14.90;100.00
77452;BME280;66537;52.370;4.832;2023-08-06T03:00:25;100576.72;;;14.82;100.00
77452;BME280;66537;52.370;4.832;2023-08-06T03:02:50;100575.97;;;14.80;100.00
77452;BME280;66537;52.370;4.832;2023-08-06T03:05:16;100574.72;;;14.87;100.00
77452;BME280;66537;52.370;4.832;2023-08-06T03:07:41;100580.56;;;14.92;100.00
77452;BME280;66537;52.370;4.832;2023-08-06T03:10:06;100579.41;;;14.98;100.00
77452;BME280;66537;52.370;4.832;2023-08-06T03:12:32;100585.38;;;15.00;100.00
77452;BME280;66537;52.370;4.832;2023-08-06T03:14:57;100586.84;;;15.05;100.00
77452;BME280;66537;52.370;4.832;2023-08-06T03:17:22;100579.09;;;15.04;100.00
77452;BME280;66537;52.370;4.832;2023-08-06T03:19:48;100572.59;;;14.95;100.00
77452;BME280;66537;52.370;4.832;2023-08-06T03:22:13;100580.09;;;15.01;100.00
77452;BME280;66537;52.370;4.832;2023-08-06T03:24:38;100577.72;;;14.97;100.00
77452;BME280;66537;52.370;4.832;2023-08-06T03:27:04;100578.03;;;14.74;100.00
77452;BME280;66537;52.370;4.832;2023-08-06T03:29:29;100578.31;;;14.68;100.00
77452;BME280;66537;52.370;4.832;2023-08-06T03:31:55;100572.72;;;14.58;100.00
77452;BME280;66537;52.370;4.832;2023-08-06T03:34:20;100571.19;;;14.54;100.00
77452;BME280;66537;52.370;4.832;2023-08-06T03:36:45;100579.16;;;14.51;100.00
77452;BME280;66537;52.370;4.832;2023-08-06T03:39:11;100577.53;;;14.48;100.00
77452;BME280;66537;52.370;4.832;2023-08-06T03:41:36;100577.53;;;14.48;100.00
77452;BME280;66537;52.370;4.832;2023-08-06T03:44:02;100580.72;;;14.36;100.00
77452;BME280;66537;52.370;4.832;2023-08-06T03:46:29;100579.19;;;14.32;100.00
77452;BME280;66537;52.370;4.832;2023-08-06T03:48:54;100582.66;;;14.33;100.00
77452;BME280;66537;52.370;4.832;2023-08-06T03:51:19;100589.84;;;14.28;100.00
77452;BME280;66537;52.370;4.832;2023-08-06T03:53:45;100585.66;;;14.24;100.00
77452;BME280;66537;52.370;4.832;2023-08-06T03:56:10;100584.88;;;14.22;100.00
77452;BME280;66537;52.370;4.832;2023-08-06T03:58:36;100585.53;;;14.08;100.00
77452;BME280;66537;52.370;4.832;2023-08-06T04:01:02;100586.78;;;14.00;100.00
77452;BME280;66537;52.370;4.832;2023-08-06T04:03:28;100587.22;;;13.91;100.00
77452;BME280;66537;52.370;4.832;2023-08-06T04:05:54;100592.06;;;13.98;100.00
77452;BME280;66537;52.370;4.832;2023-08-06T04:08:20;100588.00;;;13.93;100.00
77452;BME280;66537;52.370;4.832;2023-08-06T04:10:45;100589.56;;;13.97;100.00
77452;BME280;66537;52.370;4.832;2023-08-06T04:13:14;100584.06;;;14.03;100.00
77452;BME280;66537;52.370;4.832;2023-08-06T04:15:39;100587.50;;;14.03;100.00
77452;BME280;66537;52.370;4.832;2023-08-06T04:18:04;100590.47;;;13.96;100.00
77452;BME280;66537;52.370;4.832;2023-08-06T04:20:30;100590.69;;;13.91;100.00
77452;BME280;66537;52.370;4.832;2023-08-06T04:22:55;100588.16;;;13.90;100.00
77452;BME280;66537;52.370;4.832;2023-08-06T04:25:20;100595.88;;;13.91;100.00
77452;BME280;66537;52.370;4.832;2023-08-06T04:27:49;100597.03;;;13.86;100.00
77452;BME280;66537;52.370;4.832;2023-08-06T04:30:15;100603.47;;;13.96;100.00
77452;BME280;66537;52.370;4.832;2023-08-06T04:32:40;100606.78;;;13.99;100.00
77452;BME280;66537;52.370;4.832;2023-08-06T04:35:06;100606.78;;;13.99;100.00
77452;BME280;66537;52.370;4.832;2023-08-06T04:37:32;100610.44;;;13.95;100.00
77452;BME280;66537;52.370;4.832;2023-08-06T04:39:57;100610.16;;;14.01;100.00
77452;BME280;66537;52.370;4.832;2023-08-06T04:42:22;100611.75;;;14.04;100.00
77452;BME280;66537;52.370;4.832;2023-08-06T04:44:48;100612.59;;;14.04;100.00
77452;BME280;66537;52.370;4.832;2023-08-06T04:47:13;100620.41;;;14.04;100.00
77452;BME280;66537;52.370;4.832;2023-08-06T04:49:38;100623.78;;;14.06;100.00
77452;BME280;66537;52.370;4.832;2023-08-06T04:52:04;100628.69;;;13.94;100.00
77452;BME280;66537;52.370;4.832;2023-08-06T04:54:30;100633.34;;;13.87;100.00
77452;BME280;66537;52.370;4.832;2023-08-06T04:56:55;100623.91;;;13.85;100.00
77452;BME280;66537;52.370;4.832;2023-08-06T04:59:20;100615.63;;;13.77;100.00
77452;BME280;66537;52.370;4.832;2023-08-06T05:01:46;100624.69;;;13.68;100.00
77452;BME280;66537;52.370;4.832;2023-08-06T05:04:11;100625.47;;;13.70;100.00
77452;BME280;66537;52.370;4.832;2023-08-06T05:06:36;100623.66;;;13.72;100.00
77452;BME280;66537;52.370;4.832;2023-08-06T05:09:03;100621.75;;;13.76;100.00
77452;BME280;66537;52.370;4.832;2023-08-06T05:11:29;100633.03;;;13.75;100.00
77452;BME280;66537;52.370;4.832;2023-08-06T05:13:55;100633.81;;;13.77;100.00
77452;BME280;66537;52.370;4.832;2023-08-06T05:16:20;100641.34;;;13.83;100.00
77452;BME280;66537;52.370;4.832;2023-08-06T05:18:45;100636.06;;;13.84;100.00
77452;BME280;66537;52.370;4.832;2023-08-06T05:21:11;100638.19;;;13.95;100.00
77452;BME280;66537;52.370;4.832;2023-08-06T05:23:36;100627.78;;;13.95;100.00
77452;BME280;66537;52.370;4.832;2023-08-06T05:26:02;100637.91;;;14.01;100.00
77452;BME280;66537;52.370;4.832;2023-08-06T05:28:27;100642.13;;;14.03;100.00
77452;BME280;66537;52.370;4.832;2023-08-06T05:30:52;100650.78;;;14.04;100.00
77452;BME280;66537;52.370;4.832;2023-08-06T05:33:18;100645.44;;;14.07;100.00
77452;BME280;66537;52.370;4.832;2023-08-06T05:35:43;100657.53;;;14.08;100.00
77452;BME280;66537;52.370;4.832;2023-08-06T05:38:08;100658.50;;;14.05;100.00
77452;BME280;66537;52.370;4.832;2023-08-06T05:40:34;100668.63;;;14.11;100.00
77452;BME280;66537;52.370;4.832;2023-08-06T05:42:59;100675.19;;;14.20;100.00
77452;BME280;66537;52.370;4.832;2023-08-06T05:45:25;100671.81;;;14.18;100.00
77452;BME280;66537;52.370;4.832;2023-08-06T05:47:50;100677.91;;;14.17;100.00
77452;BME280;66537;52.370;4.832;2023-08-06T05:50:16;100676.72;;;14.24;100.00
77452;BME280;66537;52.370;4.832;2023-08-06T05:52:41;100674.13;;;14.24;100.00
77452;BME280;66537;52.370;4.832;2023-08-06T05:55:07;100683.88;;;14.19;100.00
77452;BME280;66537;52.370;4.832;2023-08-06T05:57:32;100676.84;;;14.21;100.00
77452;BME280;66537;52.370;4.832;2023-08-06T05:59:58;100676.22;;;14.16;100.00
77452;BME280;66537;52.370;4.832;2023-08-06T06:02:23;100682.28;;;14.16;100.00
77452;BME280;66537;52.370;4.832;2023-08-06T06:04:48;100683.41;;;14.11;100.00
77452;BME280;66537;52.370;4.832;2023-08-06T06:07:14;100686.84;;;14.11;100.00
77452;BME280;66537;52.370;4.832;2023-08-06T06:09:39;100696.47;;;14.09;100.00
77452;BME280;66537;52.370;4.832;2023-08-06T06:12:05;100701.91;;;14.05;100.00
77452;BME280;66537;52.370;4.832;2023-08-06T06:14:31;100701.81;;;14.06;100.00
77452;BME280;66537;52.370;4.832;2023-08-06T06:16:56;100706.31;;;14.03;100.00
77452;BME280;66537;52.370;4.832;2023-08-06T06:19:22;100703.56;;;14.06;100.00
77452;BME280;66537;52.370;4.832;2023-08-06T06:21:47;100706.25;;;14.04;100.00
77452;BME280;66537;52.370;4.832;2023-08-06T06:24:12;100698.59;;;14.01;100.00
77452;BME280;66537;52.370;4.832;2023-08-06T06:26:38;100709.19;;;13.97;100.00
77452;BME280;66537;52.370;4.832;2023-08-06T06:29:03;100707.38;;;13.99;100.00
77452;BME280;66537;52.370;4.832;2023-08-06T06:31:29;100712.66;;;13.97;100.00
77452;BME280;66537;52.370;4.832;2023-08-06T06:33:54;100711.03;;;13.95;100.00
77452;BME280;66537;52.370;4.832;2023-08-06T06:36:20;100723.88;;;13.98;100.00
77452;BME280;66537;52.370;4.832;2023-08-06T06:38:45;100726.69;;;13.93;100.00
77452;BME280;66537;52.370;4.832;2023-08-06T06:41:11;100729.34;;;13.92;100.00
77452;BME280;66537;52.370;4.832;2023-08-06T06:43:36;100726.53;;;13.96;100.00
77452;BME280;66537;52.370;4.832;2023-08-06T06:46:03;100737.66;;;14.00;100.00
77452;BME280;66537;52.370;4.832;2023-08-06T06:48:31;100736.75;;;14.01;100.00
77452;BME280;66537;52.370;4.832;2023-08-06T06:50:56;100734.09;;;14.02;100.00
77452;BME280;66537;52.370;4.832;2023-08-06T06:53:22;100736.16;;;14.14;100.00
77452;BME280;66537;52.370;4.832;2023-08-06T06:55:54;100734.59;;;14.10;100.00
77452;BME280;66537;52.370;4.832;2023-08-06T06:58:20;100733.75;;;14.10;100.00
77452;BME280;66537;52.370;4.832;2023-08-06T07:00:47;100738.88;;;14.11;100.00
77452;BME280;66537;52.370;4.832;2023-08-06T07:03:13;100737.03;;;14.13;100.00
77452;BME280;66537;52.370;4.832;2023-08-06T07:05:39;100737.97;;;14.12;100.00
77452;BME280;66537;52.370;4.832;2023-08-06T07:08:04;100736.06;;;14.16;100.00
77452;BME280;66537;52.370;4.832;2023-08-06T07:10:30;100738.75;;;14.14;100.00
77452;BME280;66537;52.370;4.832;2023-08-06T07:12:55;100736.78;;;14.19;100.00
77452;BME280;66537;52.370;4.832;2023-08-06T07:15:21;100734.69;;;14.27;100.00
77452;BME280;66537;52.370;4.832;2023-08-06T07:17:46;100740.59;;;14.31;100.00
77452;BME280;66537;52.370;4.832;2023-08-06T07:20:12;100744.06;;;14.31;100.00
77452;BME280;66537;52.370;4.832;2023-08-06T07:22:37;100741.38;;;14.33;100.00
77452;BME280;66537;52.370;4.832;2023-08-06T07:25:03;100742.81;;;14.40;100.00
77452;BME280;66537;52.370;4.832;2023-08-06T07:27:28;100746.38;;;14.37;100.00
77452;BME280;66537;52.370;4.832;2023-08-06T07:29:53;100752.22;;;14.42;100.00
77452;BME280;66537;52.370;4.832;2023-08-06T07:32:19;100752.28;;;14.41;100.00
77452;BME280;66537;52.370;4.832;2023-08-06T07:34:44;100747.94;;;14.41;100.00
77452;BME280;66537;52.370;4.832;2023-08-06T07:37:09;100752.44;;;14.38;100.00
77452;BME280;66537;52.370;4.832;2023-08-06T07:39:35;100756.66;;;14.40;100.00
77452;BME280;66537;52.370;4.832;2023-08-06T07:42:03;100755.88;;;14.38;100.00
77452;BME280;66537;52.370;4.832;2023-08-06T07:44:30;100755.88;;;14.38;100.00
77452;BME280;66537;52.370;4.832;2023-08-06T07:46:56;100763.63;;;14.40;100.00
77452;BME280;66537;52.370;4.832;2023-08-06T07:49:21;100755.06;;;14.38;100.00
77452;BME280;66537;52.370;4.832;2023-08-06T07:51:47;100758.56;;;14.37;100.00
77452;BME280;66537;52.370;4.832;2023-08-06T07:54:12;100758.75;;;14.32;100.00
77452;BME280;66537;52.370;4.832;2023-08-06T07:56:38;100764.72;;;14.34;100.00
77452;BME280;66537;52.370;4.832;2023-08-06T07:59:03;100765.03;;;14.28;100.00
77452;BME280;66537;52.370;4.832;2023-08-06T08:01:29;100773.31;;;14.36;100.00
77452;BME280;66537;52.370;4.832;2023-08-06T08:03:54;100772.97;;;14.44;100.00
77452;BME280;66537;52.370;4.832;2023-08-06T08:06:20;100768.53;;;14.46;100.00
77452;BME280;66537;52.370;4.832;2023-08-06T08:08:45;100775.28;;;14.50;100.00
77452;BME280;66537;52.370;4.832;2023-08-06T08:11:10;100770.88;;;14.52;100.00
77452;BME280;66537;52.370;4.832;2023-08-06T08:13:36;100777.53;;;14.58;100.00
77452;BME280;66537;52.370;4.832;2023-08-06T08:16:01;100773.97;;;14.60;100.00
77452;BME280;66537;52.370;4.832;2023-08-06T08:18:27;100783.41;;;14.63;100.00
77452;BME280;66537;52.370;4.832;2023-08-06T08:20:52;100787.25;;;14.54;100.00
77452;BME280;66537;52.370;4.832;2023-08-06T08:23:18;100785.34;;;14.58;100.00
77452;BME280;66537;52.370;4.832;2023-08-06T08:25:43;100788.88;;;14.57;100.00
77452;BME280;66537;52.370;4.832;2023-08-06T08:28:08;100781.16;;;14.55;100.00
77452;BME280;66537;52.370;4.832;2023-08-06T08:30:34;100780.22;;;14.56;100.00
77452;BME280;66537;52.370;4.832;2023-08-06T08:32:59;100779.09;;;14.62;100.00
77452;BME280;66537;52.370;4.832;2023-08-06T08:35:25;100785.84;;;14.66;100.00
77452;BME280;66537;52.370;4.832;2023-08-06T08:37:50;100783.53;;;14.60;100.00
77452;BME280;66537;52.370;4.832;2023-08-06T08:40:16;100786.22;;;14.58;100.00
77452;BME280;66537;52.370;4.832;2023-08-06T08:42:42;100784.25;;;14.63;100.00
77452;BME280;66537;52.370;4.832;2023-08-06T08:45:12;100792.19;;;14.60;100.00
77452;BME280;66537;52.370;4.832;2023-08-06T08:47:40;100790.25;;;14.65;100.00
77452;BME280;66537;52.370;4.832;2023-08-06T08:50:06;100780.28;;;14.73;100.00
77452;BME280;66537;52.370;4.832;2023-08-06T08:52:33;100787.28;;;14.73;100.00
77452;BME280;66537;52.370;4.832;2023-08-06T08:55:01;100794.84;;;14.77;100.00
77452;BME280;66537;52.370;4.832;2023-08-06T08:57:26;100790.72;;;14.92;100.00
77452;BME280;66537;52.370;4.832;2023-08-06T08:59:51;100793.72;;;15.01;100.00
77452;BME280;66537;52.370;4.832;2023-08-06T09:02:17;100799.34;;;15.11;100.00
77452;BME280;66537;52.370;4.832;2023-08-06T09:04:46;100800.88;;;15.15;100.00
77452;BME280;66537;52.370;4.832;2023-08-06T09:07:17;100802.81;;;15.28;100.00
77452;BME280;66537;52.370;4.832;2023-08-06T09:09:44;100810.34;;;15.34;100.00
77452;BME280;66537;52.370;4.832;2023-08-06T09:12:14;100816.16;;;15.39;100.00
77452;BME280;66537;52.370;4.832;2023-08-06T09:14:40;100811.75;;;15.42;100.00
77452;BME280;66537;52.370;4.832;2023-08-06T09:17:07;100817.22;;;15.35;100.00
77452;BME280;66537;52.370;4.832;2023-08-06T09:19:33;100817.31;;;15.34;100.00
77452;BME280;66537;52.370;4.832;2023-08-06T09:21:58;100817.56;;;15.47;100.00
77452;BME280;66537;52.370;4.832;2023-08-06T09:24:24;100821.59;;;15.54;100.00
77452;BME280;66537;52.370;4.832;2023-08-06T09:26:51;100820.28;;;15.62;100.00
77452;BME280;66537;52.370;4.832;2023-08-06T09:29:16;100832.25;;;15.49;100.00
77452;BME280;66537;52.370;4.832;2023-08-06T09:31:44;100832.88;;;15.35;100.00
77452;BME280;66537;52.370;4.832;2023-08-06T09:34:17;100838.75;;;15.22;100.00
77452;BME280;66537;52.370;4.832;2023-08-06T09:36:46;100843.25;;;15.18;100.00
77452;BME280;66537;52.370;4.832;2023-08-06T09:39:13;100842.84;;;15.09;100.00
77452;BME280;66537;52.370;4.832;2023-08-06T09:41:39;100850.50;;;15.12;100.00
77452;BME280;66537;52.370;4.832;2023-08-06T09:44:05;100853.28;;;15.09;100.00
77452;BME280;66537;52.370;4.832;2023-08-06T09:46:32;100861.28;;;15.04;100.00
77452;BME280;66537;52.370;4.832;2023-08-06T09:48:58;100858.50;;;15.09;100.00
77452;BME280;66537;52.370;4.832;2023-08-06T09:51:23;100861.25;;;15.06;100.00
77452;BME280;66537;52.370;4.832;2023-08-06T09:53:49;100864.56;;;15.09;100.00
77452;BME280;66537;52.370;4.832;2023-08-06T09:56:17;100868.06;;;15.08;100.00
77452;BME280;66537;52.370;4.832;2023-08-06T09:58:43;100872.00;;;15.17;100.00
77452;BME280;66537;52.370;4.832;2023-08-06T10:01:10;100864.19;;;15.17;100.00
77452;BME280;66537;52.370;4.832;2023-08-06T10:03:38;100869.31;;;15.18;100.00
77452;BME280;66537;52.370;4.832;2023-08-06T10:06:04;100872.25;;;15.29;100.00
77452;BME280;66537;52.370;4.832;2023-08-06T10:08:35;100880.03;;;15.31;100.00
77452;BME280;66537;52.370;4.832;2023-08-06T10:11:02;100871.00;;;15.38;100.00
77452;BME280;66537;52.370;4.832;2023-08-06T10:13:30;100882.41;;;15.35;100.00
77452;BME280;66537;52.370;4.832;2023-08-06T10:15:56;100875.09;;;15.44;100.00
77452;BME280;66537;52.370;4.832;2023-08-06T10:18:22;100875.88;;;15.46;100.00
77452;BME280;66537;52.370;4.832;2023-08-06T10:20:48;100881.25;;;15.43;100.00
77452;BME280;66537;52.370;4.832;2023-08-06T10:23:13;100884.88;;;15.38;100.00
77452;BME280;66537;52.370;4.832;2023-08-06T10:25:41;100877.63;;;15.45;100.00
77452;BME280;66537;52.370;4.832;2023-08-06T10:28:11;100882.16;;;15.42;100.00
77452;BME280;66537;52.370;4.832;2023-08-06T10:33:09;100881.84;;;15.48;100.00
77452;BME280;66537;52.370;4.832;2023-08-06T10:35:45;100885.38;;;15.47;100.00
77452;BME280;66537;52.370;4.832;2023-08-06T10:38:24;100888.75;;;15.49;100.00
77452;BME280;66537;52.370;4.832;2023-08-06T10:43:31;100893.59;;;15.37;100.00
77452;BME280;66537;52.370;4.832;2023-08-06T10:45:58;100890.38;;;15.32;100.00
77452;BME280;66537;52.370;4.832;2023-08-06T10:48:34;100896.38;;;15.34;100.00
77452;BME280;66537;52.370;4.832;2023-08-06T10:51:01;100888.47;;;15.36;100.00
77452;BME280;66537;52.370;4.832;2023-08-06T10:53:27;100897.50;;;15.29;100.00
77452;BME280;66537;52.370;4.832;2023-08-06T10:55:52;100895.22;;;15.40;100.00
77452;BME280;66537;52.370;4.832;2023-08-06T10:58:18;100897.13;;;15.36;100.00
77452;BME280;66537;52.370;4.832;2023-08-06T11:00:43;100904.25;;;15.52;100.00
77452;BME280;66537;52.370;4.832;2023-08-06T11:03:08;100907.00;;;15.49;100.00
77452;BME280;66537;52.370;4.832;2023-08-06T11:05:35;100901.25;;;15.42;100.00
77452;BME280;66537;52.370;4.832;2023-08-06T11:08:01;100905.00;;;15.35;100.00
77452;BME280;66537;52.370;4.832;2023-08-06T11:10:26;100901.00;;;15.47;100.00
77452;BME280;66537;52.370;4.832;2023-08-06T11:12:51;100905.13;;;15.52;100.00
77452;BME280;66537;52.370;4.832;2023-08-06T11:15:17;100905.16;;;15.32;100.00
77452;BME280;66537;52.370;4.832;2023-08-06T11:17:42;100905.25;;;15.30;100.00
77452;BME280;66537;52.370;4.832;2023-08-06T11:20:08;100904.72;;;15.41;100.00
77452;BME280;66537;52.370;4.832;2023-08-06T11:22:35;100913.16;;;15.48;100.00
77452;BME280;66537;52.370;4.832;2023-08-06T11:25:01;100906.47;;;15.42;100.00
77452;BME280;66537;52.370;4.832;2023-08-06T11:27:27;100907.94;;;15.48;100.00
77452;BME280;66537;52.370;4.832;2023-08-06T11:29:53;100916.75;;;15.62;100.00
77452;BME280;66537;52.370;4.832;2023-08-06T11:32:19;100920.31;;;15.61;100.00
77452;BME280;66537;52.370;4.832;2023-08-06T11:34:44;100909.00;;;15.79;100.00
77452;BME280;66537;52.370;4.832;2023-08-06T11:37:09;100903.53;;;15.84;100.00
77452;BME280;66537;52.370;4.832;2023-08-06T11:39:36;100911.69;;;15.95;100.00
77452;BME280;66537;52.370;4.832;2023-08-06T11:42:06;100907.16;;;15.98;100.00
77452;BME280;66537;52.370;4.832;2023-08-06T11:44:35;100917.59;;;16.15;100.00
77452;BME280;66537;52.370;4.832;2023-08-06T11:47:03;100916.38;;;16.22;100.00
77452;BME280;66537;52.370;4.832;2023-08-06T11:52:24;100917.38;;;16.54;100.00
77452;BME280;66537;52.370;4.832;2023-08-06T11:57:32;100913.28;;;16.66;100.00
77452;BME280;66537;52.370;4.832;2023-08-06T12:00:04;100918.38;;;16.84;100.00
77452;BME280;66537;52.370;4.832;2023-08-06T12:02:32;100922.38;;;16.74;100.00
77452;BME280;66537;52.370;4.832;2023-08-06T12:07:56;100921.94;;;16.99;100.00
77452;BME280;66537;52.370;4.832;2023-08-06T12:10:24;100927.66;;;16.90;100.00
77452;BME280;66537;52.370;4.832;2023-08-06T12:12:49;100928.34;;;16.93;100.00
77452;BME280;66537;52.370;4.832;2023-08-06T12:15:15;100930.66;;;16.82;100.00
77452;BME280;66537;52.370;4.832;2023-08-06T12:17:41;100938.09;;;16.90;100.00
77452;BME280;66537;52.370;4.832;2023-08-06T12:20:08;100927.63;;;17.23;100.00
77452;BME280;66537;52.370;4.832;2023-08-06T12:22:34;100933.63;;;17.56;100.00
77452;BME280;66537;52.370;4.832;2023-08-06T12:25:06;100935.06;;;17.30;100.00
77452;BME280;66537;52.370;4.832;2023-08-06T12:27:37;100935.13;;;17.60;100.00
77452;BME280;66537;52.370;4.832;2023-08-06T12:30:03;100934.47;;;17.56;100.00
77452;BME280;66537;52.370;4.832;2023-08-06T12:32:29;100942.13;;;17.44;100.00
77452;BME280;66537;52.370;4.832;2023-08-06T12:34:55;100942.56;;;17.52;100.00
77452;BME280;66537;52.370;4.832;2023-08-06T12:37:20;100947.63;;;17.39;100.00
77452;BME280;66537;52.370;4.832;2023-08-06T12:39:46;100946.88;;;17.53;100.00
77452;BME280;66537;52.370;4.832;2023-08-06T12:42:11;100951.34;;;17.66;100.00
77452;BME280;66537;52.370;4.832;2023-08-06T12:44:37;100951.56;;;17.77;100.00
77452;BME280;66537;52.370;4.832;2023-08-06T12:47:02;100962.91;;;17.62;100.00
77452;BME280;66537;52.370;4.832;2023-08-06T12:49:28;100953.63;;;17.57;100.00
77452;BME280;66537;52.370;4.832;2023-08-06T12:51:54;100963.56;;;17.66;100.00